シドニー の空港の天気 - METARとTAF

シドニー国際空港 ( YSSY / SYD ) - オーストラリア ニューサウスウェールズ州、Mascot
飛行場実況気象(Metar)
観測時間10/22 22:30 AEDT (10/22 11:30 UTC)
風向・風速北 7m/s
視程10km以上
天気現象
全天の4割程度の雲 雲底高度 460m
全天の8割程度の雲 雲底高度 3660m
気温21℃
湿度78%
気圧1015hPa
METARYSSY 221130Z 01013KT 9999 SCT015 BKN120 21/17 Q1015 NOSIG
過去の天気等 Google飛行場航空写真 Wunderground天気予報

過去48時間のMETAR

飛行場予報(TAF)
発表時間: 10/22 22:07 AEDT (10/22 11:07 UTC)
予報対象時間: 22日23時 AEDT ~ 24日5時 AEDT
風向・風速北北東 4m/s
視程10km以上
全天の4割程度の雲 雲底高度 610m
23日10時 AEDT から
風向・風速東北東 5m/s
視程10km以上
少しの雲 雲底高度 910m
23日15時 AEDT から
風向・風速北東 9m/s 瞬間風速 14m/s
視程10km以上
少しの雲 雲底高度 610m
23日21時 AEDT から
風向・風速北 6m/s
視程10km以上
天気現象弱いしゅう雨
全天の4割程度の雲 雲底高度 610m
全天の8割程度の雲 雲底高度 3050m
TAF YSSY 221107Z 2212/2318 02008KT 9999 SCT020
FM222300 06010KT 9999 FEW030
FM230400 04018G28KT 9999 FEW020
FM231000 01012KT 9999 -SHRA SCT020 BKN100